ニューヨーク/JFK の空港の天気 - METARとTAF

ジョン・F・ケネディ国際空港 ( KJFK / JFK ) - アメリカ ニューヨーク州ニューヨーク
飛行場実況気象(Metar)
観測時間09/27 19:51 EDT (09/27 23:51 UTC)
風向・風速北西 5m/s
視程10km以上
天気現象
少しの雲 雲底高度 1830m
全天の4割程度の雲 雲底高度 2740m
気温18.3℃
湿度50%
気圧1013.3hPa
METARKJFK 272351Z 31009KT 10SM FEW060 SCT090 18/08 A2993 RMK AO2 SLP133 T01830078 10222 20183 53019
過去の天気等 Google飛行場航空写真 Wunderground天気予報

過去48時間のMETAR

飛行場予報(TAF)
発表時間: 9/27 19:29 EDT (9/27 23:29 UTC)
予報対象時間: 27日20時 EDT ~ 29日2時 EDT
風向・風速西 7m/s
視程10km以上
全天の4割程度の雲 雲底高度 1520m
28日0時 EDT から
風向・風速西 6m/s
視程10km以上
少しの雲 雲底高度 1520m
28日15時 EDT から
風向・風速北西 6m/s
視程10km以上
全天の4割程度の雲 雲底高度 1520m
全天の4割程度の雲 雲底高度 7620m
29日0時 EDT から
風向・風速北北西 6m/s
視程10km以上
少しの雲 雲底高度 1520m
全天の4割程度の雲 雲底高度 7620m
KJFK 272329Z 2800/2906 28013KT P6SM SCT050
FM280400 27012KT P6SM FEW050
FM281900 31012KT P6SM SCT050 SCT250
FM290400 34012KT P6SM FEW050 SCT250